createdAt,value
2023-03-21T00:00:35.542Z,4.95
2023-03-21T00:01:37.859Z,3.92
2023-03-21T00:02:40.405Z,5.05
2023-03-21T00:03:47.914Z,5.30
2023-03-21T00:04:53.578Z,4.60
2023-03-21T00:05:57.097Z,3.35
2023-03-21T00:06:59.525Z,4.32
2023-03-21T00:08:02.708Z,6.15
2023-03-21T00:09:05.210Z,3.88
2023-03-21T00:10:15.478Z,4.00
2023-03-21T00:11:21.594Z,6.60
2023-03-21T00:12:24.060Z,4.90
2023-03-21T00:13:28.199Z,3.75
2023-03-21T00:14:31.072Z,4.32
2023-03-21T00:15:44.073Z,4.25
2023-03-21T00:16:51.287Z,4.50
2023-03-21T00:18:03.392Z,3.75
2023-03-21T00:19:06.602Z,4.38
2023-03-21T00:20:15.254Z,4.95
2023-03-21T00:22:43.286Z,3.88
2023-03-21T00:23:46.773Z,4.90
2023-03-21T00:24:49.119Z,3.90
2023-03-21T00:25:51.519Z,3.10
2023-03-21T00:26:54.026Z,5.57
2023-03-21T00:28:07.808Z,4.45
2023-03-21T00:29:10.468Z,3.90
2023-03-21T00:30:13.250Z,6.13
2023-03-21T00:31:17.502Z,4.57
2023-03-21T00:32:21.277Z,3.83
2023-03-21T00:33:23.600Z,7.25
2023-03-21T00:34:36.986Z,3.72
2023-03-21T00:36:05.717Z,3.97
2023-03-21T00:37:11.901Z,7.63
2023-03-21T00:38:18.118Z,4.07
2023-03-21T00:39:20.442Z,3.55
2023-03-21T00:40:29.320Z,4.22
2023-03-21T00:41:42.496Z,6.22
2023-03-21T00:42:45.780Z,4.53
2023-03-21T00:43:48.125Z,4.15
2023-03-21T00:44:50.567Z,3.78
2023-03-21T00:45:52.815Z,5.63
2023-03-21T00:47:06.471Z,3.33
2023-03-21T00:48:10.700Z,3.95
2023-03-21T00:49:13.305Z,4.28
2023-03-21T00:50:16.703Z,10.50
2023-03-21T00:51:26.360Z,73.68
2023-03-21T00:52:40.128Z,141.27
2023-03-21T00:53:43.170Z,83.32
2023-03-21T00:54:47.987Z,37.13
2023-03-21T00:55:50.299Z,24.92
2023-03-21T00:56:53.045Z,27.33
2023-03-21T00:58:01.534Z,20.25
2023-03-21T00:59:04.776Z,16.52
2023-03-21T01:00:12.413Z,13.23
2023-03-21T01:01:15.087Z,9.30
2023-03-21T01:02:23.012Z,10.13
2023-03-21T01:03:26.588Z,9.50
2023-03-21T01:04:29.190Z,8.45
2023-03-21T01:05:56.906Z,8.23
2023-03-21T01:06:59.297Z,8.30
2023-03-21T01:08:06.019Z,6.40
2023-03-21T01:09:18.642Z,8.80
2023-03-21T01:10:22.191Z,8.20
2023-03-21T01:11:28.159Z,9.45
2023-03-21T01:12:30.431Z,6.90
2023-03-21T01:13:36.353Z,7.50
2023-03-21T01:14:39.086Z,6.60
2023-03-21T01:15:48.541Z,8.73
2023-03-21T01:16:53.177Z,6.07
2023-03-21T01:17:55.720Z,6.93
2023-03-21T01:18:59.501Z,11.68
2023-03-21T01:20:02.173Z,6.93
2023-03-21T01:21:08.762Z,4.93
2023-03-21T01:22:11.370Z,4.82
2023-03-21T01:23:15.415Z,66.93
2023-03-21T01:24:17.766Z,279.85
2023-03-21T01:25:22.926Z,275.95
2023-03-21T01:26:25.922Z,242.82
2023-03-21T01:27:28.313Z,162.85
2023-03-21T01:28:31.151Z,115.95
2023-03-21T01:29:33.483Z,91.07
2023-03-21T01:30:41.635Z,67.18
2023-03-21T01:31:44.574Z,55.03
2023-03-21T01:32:47.761Z,52.72
2023-03-21T01:33:50.250Z,43.13
2023-03-21T01:34:52.593Z,39.10
2023-03-21T01:36:11.773Z,37.88
2023-03-21T01:37:18.652Z,34.25
2023-03-21T01:38:23.860Z,34.40
2023-03-21T01:39:26.435Z,34.80
2023-03-21T01:40:30.604Z,31.48
2023-03-21T01:41:44.714Z,32.25
2023-03-21T01:43:26.324Z,26.65
2023-03-21T01:44:29.754Z,28.38
2023-03-21T01:46:09.330Z,26.52
2023-03-21T01:47:32.789Z,25.90
2023-03-21T01:49:04.449Z,24.80
2023-03-21T01:50:07.055Z,19.77
2023-03-21T01:51:15.963Z,23.80
2023-03-21T01:52:39.024Z,21.08
2023-03-21T01:53:46.047Z,21.58
2023-03-21T01:54:48.639Z,24.60
2023-03-21T01:55:51.211Z,21.45
2023-03-21T01:57:19.867Z,18.80
2023-03-21T01:58:26.032Z,18.90
2023-03-21T02:00:11.974Z,18.90
2023-03-21T02:01:38.328Z,17.35
2023-03-21T02:02:52.199Z,18.45
2023-03-21T02:04:09.202Z,18.83
2023-03-21T02:05:44.054Z,16.08
2023-03-21T02:06:51.938Z,14.85
2023-03-21T02:08:23.985Z,13.32
2023-03-21T02:09:33.431Z,17.83
2023-03-21T02:10:36.931Z,16.77
2023-03-21T02:11:41.417Z,15.25
2023-03-21T02:12:43.944Z,18.77
2023-03-21T02:13:47.580Z,15.15
2023-03-21T02:14:52.997Z,11.68
2023-03-21T02:16:26.268Z,10.35
2023-03-21T02:17:31.827Z,11.13
2023-03-21T02:18:35.839Z,10.75
2023-03-21T02:20:09.250Z,11.30
2023-03-21T02:21:40.272Z,9.38
2023-03-21T02:23:04.891Z,29.20
2023-03-21T02:24:28.816Z,22.15
2023-03-21T02:25:48.711Z,17.92
2023-03-21T02:27:01.486Z,11.63
2023-03-21T02:28:21.658Z,9.38
2023-03-21T02:29:43.100Z,8.38
2023-03-21T02:31:05.750Z,7.78
2023-03-21T02:32:31.453Z,12.13
2023-03-21T02:37:00.868Z,5.93
2023-03-21T02:38:17.029Z,6.43
2023-03-21T02:39:45.606Z,7.90
2023-03-21T02:41:03.431Z,4.10
2023-03-21T02:42:34.890Z,6.50
2023-03-21T02:43:44.808Z,7.65
2023-03-21T02:45:05.257Z,3.72
2023-03-21T02:46:16.715Z,4.80
2023-03-21T02:47:25.799Z,5.57
2023-03-21T02:48:49.832Z,3.38
2023-03-21T02:49:53.502Z,4.22
2023-03-21T02:50:59.062Z,8.63
2023-03-21T02:52:31.753Z,5.80
2023-03-21T02:53:41.314Z,5.50
2023-03-21T02:54:48.599Z,4.10
2023-03-21T02:55:56.710Z,3.40
2023-03-21T02:57:03.847Z,5.97
2023-03-21T02:58:13.115Z,2.83
2023-03-21T02:59:25.097Z,5.45
2023-03-21T03:00:32.757Z,6.35
2023-03-21T03:01:36.857Z,6.55
2023-03-21T03:02:40.869Z,4.55
2023-03-21T03:03:44.669Z,5.22
2023-03-21T03:04:47.706Z,3.05
2023-03-21T03:05:56.939Z,3.45
2023-03-21T03:07:01.069Z,3.92
2023-03-21T03:08:22.198Z,15.80
2023-03-21T03:09:51.739Z,6.30
2023-03-21T03:11:06.983Z,15.43
2023-03-21T03:12:21.371Z,11.25
2023-03-21T03:13:51.727Z,5.57
2023-03-21T03:15:03.967Z,6.05
2023-03-21T03:16:18.407Z,7.10
2023-03-21T03:17:28.567Z,6.32
2023-03-21T03:18:54.458Z,5.95
2023-03-21T03:20:15.504Z,4.40
2023-03-21T03:21:29.781Z,4.88
2023-03-21T03:23:09.285Z,4.95
2023-03-21T03:24:30.740Z,4.63
2023-03-21T03:25:43.834Z,4.50
2023-03-21T03:27:15.556Z,5.82
2023-03-21T03:28:25.972Z,4.55
2023-03-21T03:29:31.508Z,3.65
2023-03-21T03:30:43.410Z,7.15
2023-03-21T03:32:20.312Z,4.03
2023-03-21T03:33:25.108Z,6.05
2023-03-21T03:34:39.464Z,7.82
2023-03-21T03:35:48.257Z,4.15
2023-03-21T03:36:59.647Z,4.22
2023-03-21T03:38:07.377Z,2.97
2023-03-21T03:39:13.454Z,5.93
2023-03-21T03:40:48.812Z,6.20
2023-03-21T03:42:28.125Z,13.60
2023-03-21T03:43:53.958Z,7.88
2023-03-21T03:44:59.339Z,12.85
2023-03-21T03:46:12.258Z,8.32
2023-03-21T03:47:32.819Z,4.60
2023-03-21T03:49:02.618Z,5.85
2023-03-21T03:50:13.063Z,7.70
2023-03-21T03:51:54.144Z,7.13
2023-03-21T03:53:18.935Z,4.70
2023-03-21T03:54:38.292Z,5.10
2023-03-21T03:55:41.784Z,6.28
2023-03-21T03:56:48.708Z,5.43
2023-03-21T03:57:52.267Z,4.95
2023-03-21T03:58:55.967Z,4.00
2023-03-21T04:00:13.100Z,3.75
2023-03-21T04:01:23.353Z,4.75
2023-03-21T04:02:26.495Z,4.72
2023-03-21T04:03:36.629Z,4.60
2023-03-21T04:04:53.110Z,5.30
2023-03-21T04:05:56.384Z,6.05
2023-03-21T04:06:59.218Z,3.80
2023-03-21T04:08:02.154Z,6.38
2023-03-21T04:09:20.602Z,3.75
2023-03-21T04:10:24.709Z,5.53
2023-03-21T04:11:27.530Z,3.65
2023-03-21T04:12:30.982Z,2.85
2023-03-21T04:13:52.185Z,4.28
2023-03-21T04:15:08.151Z,3.22
2023-03-21T04:16:14.429Z,4.25
2023-03-21T04:17:18.627Z,4.03
2023-03-21T04:18:23.691Z,4.20
2023-03-21T04:19:27.017Z,4.57
2023-03-21T04:20:43.400Z,4.82
2023-03-21T04:21:47.403Z,9.77
2023-03-21T04:22:54.083Z,14.40
2023-03-21T04:23:57.542Z,35.80
2023-03-21T04:25:01.429Z,24.02
2023-03-21T04:26:05.803Z,28.73
2023-03-21T04:27:15.475Z,21.05
2023-03-21T04:28:22.823Z,20.70
2023-03-21T04:29:36.525Z,14.65
2023-03-21T04:31:06.749Z,15.00
2023-03-21T04:32:19.690Z,14.38
2023-03-21T04:33:29.917Z,9.05
2023-03-21T04:34:32.533Z,8.98
2023-03-21T04:35:38.263Z,9.40
2023-03-21T04:36:49.482Z,10.65
2023-03-21T04:37:52.226Z,8.95
2023-03-21T04:38:57.088Z,8.38
2023-03-21T04:39:59.571Z,10.55
2023-03-21T04:41:03.472Z,9.63
2023-03-21T04:42:06.334Z,10.10
2023-03-21T04:43:08.680Z,10.23
2023-03-21T04:44:16.450Z,9.15
2023-03-21T04:45:19.536Z,9.77
2023-03-21T04:46:23.147Z,11.25
2023-03-21T04:47:26.730Z,7.38
2023-03-21T04:48:30.839Z,7.68
2023-03-21T04:49:36.312Z,8.93
2023-03-21T04:50:38.752Z,8.18
2023-03-21T04:51:41.568Z,7.78
2023-03-21T04:52:47.257Z,8.95
2023-03-21T04:53:52.404Z,6.57
2023-03-21T04:54:55.294Z,9.27
2023-03-21T04:55:58.580Z,8.02
2023-03-21T04:57:01.473Z,16.02
2023-03-21T04:58:04.648Z,33.88
2023-03-21T04:59:10.423Z,16.65
2023-03-21T05:00:16.175Z,21.63
2023-03-21T05:01:20.636Z,16.23
2023-03-21T05:02:23.651Z,14.13
2023-03-21T05:03:25.983Z,15.52
2023-03-21T05:04:29.732Z,13.02
2023-03-21T05:05:32.089Z,11.43
2023-03-21T05:06:35.108Z,14.10
2023-03-21T05:07:41.218Z,11.75
2023-03-21T05:08:43.644Z,13.88
2023-03-21T05:09:47.702Z,10.23
2023-03-21T05:10:52.713Z,11.18
2023-03-21T05:11:56.230Z,10.20
2023-03-21T05:12:58.769Z,13.80
2023-03-21T05:14:11.119Z,11.52
2023-03-21T05:15:13.931Z,9.25
2023-03-21T05:16:17.555Z,9.52
2023-03-21T05:17:23.213Z,9.90
2023-03-21T05:18:26.394Z,10.43
2023-03-21T05:19:40.527Z,8.15
2023-03-21T05:20:43.148Z,13.77
2023-03-21T05:21:46.284Z,10.25
2023-03-21T05:44:27.469Z,9.88
2023-03-21T05:45:30.796Z,9.65
2023-03-21T05:46:33.471Z,8.02
2023-03-21T05:47:36.566Z,10.73
2023-03-21T05:48:39.498Z,11.02
2023-03-21T05:49:52.746Z,7.82
2023-03-21T05:51:21.260Z,9.00
2023-03-21T05:52:24.141Z,9.27
2023-03-21T05:53:26.968Z,8.88
2023-03-21T05:54:29.521Z,10.57
2023-03-21T05:55:32.014Z,10.30
2023-03-21T05:56:34.748Z,8.82
2023-03-21T05:57:41.034Z,8.70
2023-03-21T05:58:48.551Z,9.77
2023-03-21T05:59:51.157Z,7.13
2023-03-21T06:00:55.017Z,9.63
2023-03-21T06:02:05.078Z,8.27
2023-03-21T06:03:07.531Z,8.45
2023-03-21T06:04:28.984Z,11.95
2023-03-21T06:05:31.584Z,9.45
2023-03-21T06:06:34.110Z,10.25
2023-03-21T06:07:37.443Z,10.13
2023-03-21T06:08:40.353Z,9.23
2023-03-21T06:09:42.721Z,8.85
2023-03-21T06:10:45.823Z,8.35
2023-03-21T06:11:51.589Z,8.32
2023-03-21T06:13:16.877Z,9.73
2023-03-21T06:14:20.619Z,10.38
2023-03-21T06:15:40.370Z,10.90
2023-03-21T06:16:51.285Z,8.80
2023-03-21T06:17:53.693Z,8.93
2023-03-21T06:18:56.662Z,7.65
2023-03-21T06:20:13.359Z,9.82
2023-03-21T06:21:21.646Z,8.00
2023-03-21T06:22:27.313Z,8.65
2023-03-21T06:23:30.049Z,8.38
2023-03-21T06:24:33.321Z,7.97
2023-03-21T06:25:36.090Z,8.45
2023-03-21T06:26:38.768Z,8.55
2023-03-21T06:27:41.379Z,10.80
2023-03-21T06:28:43.762Z,10.27
2023-03-21T06:29:46.802Z,8.80
2023-03-21T06:30:49.382Z,7.90
2023-03-21T06:31:57.076Z,9.32
2023-03-21T06:32:59.468Z,11.30
2023-03-21T06:34:01.931Z,8.80
2023-03-21T06:35:05.000Z,9.32
2023-03-21T06:36:07.767Z,7.90
2023-03-21T06:37:10.493Z,10.30
2023-03-21T06:38:13.201Z,9.07
2023-03-21T06:39:16.149Z,8.32
2023-03-21T06:40:20.016Z,7.93
2023-03-21T06:41:22.406Z,8.65
2023-03-21T06:42:34.845Z,12.45
2023-03-21T06:43:44.951Z,7.57
2023-03-21T06:44:47.910Z,10.95
2023-03-21T06:45:51.754Z,6.70
2023-03-21T06:46:54.480Z,6.32
2023-03-21T06:47:57.745Z,11.27
2023-03-21T06:49:09.669Z,11.27
2023-03-21T06:50:12.537Z,6.93
2023-03-21T06:51:18.033Z,7.15
2023-03-21T06:52:45.575Z,7.78
2023-03-21T06:53:49.604Z,7.13
2023-03-21T06:55:00.460Z,8.02
2023-03-21T06:56:02.947Z,8.68
2023-03-21T06:57:07.053Z,7.28
2023-03-21T06:58:10.804Z,10.23
2023-03-21T06:59:13.205Z,9.40
2023-03-21T07:00:36.006Z,6.53
2023-03-21T07:01:38.729Z,7.53
2023-03-21T07:02:43.110Z,9.93
2023-03-21T07:03:50.230Z,6.22
2023-03-21T07:04:53.995Z,8.90
2023-03-21T07:05:59.001Z,8.85
2023-03-21T07:07:01.457Z,6.88
2023-03-21T07:08:04.730Z,8.73
2023-03-21T07:09:09.365Z,7.97
2023-03-21T07:10:13.278Z,7.07
2023-03-21T07:11:38.364Z,8.05
2023-03-21T07:12:41.659Z,6.30
2023-03-21T07:13:52.741Z,6.70
2023-03-21T07:14:55.248Z,8.07
2023-03-21T07:15:58.190Z,6.55
2023-03-21T07:17:00.773Z,5.90
2023-03-21T07:18:03.695Z,6.47
2023-03-21T07:19:08.228Z,8.20
2023-03-21T07:20:14.141Z,6.40
2023-03-21T07:21:17.298Z,8.65
2023-03-21T07:22:20.541Z,7.03
2023-03-21T07:23:25.801Z,8.38
2023-03-21T07:24:28.481Z,5.85
2023-03-21T07:25:31.008Z,7.95
2023-03-21T07:26:33.449Z,6.28
2023-03-21T07:27:37.368Z,9.48
2023-03-21T07:28:40.737Z,7.68
2023-03-21T07:29:44.083Z,6.15
2023-03-21T07:30:53.376Z,6.78
2023-03-21T07:31:55.972Z,6.68
2023-03-21T07:32:58.702Z,6.70
2023-03-21T07:34:01.557Z,7.30
2023-03-21T07:35:05.789Z,6.35
2023-03-21T07:36:13.056Z,5.47
2023-03-21T07:37:16.280Z,8.75
2023-03-21T07:38:20.550Z,6.40
2023-03-21T07:39:26.956Z,6.63
2023-03-21T07:40:29.342Z,6.55
2023-03-21T07:41:32.040Z,6.15
2023-03-21T07:42:50.208Z,5.25
2023-03-21T07:44:04.330Z,5.68
2023-03-21T07:45:10.368Z,5.38
2023-03-21T07:46:16.049Z,6.70
2023-03-21T07:47:18.665Z,6.63
2023-03-21T07:48:23.197Z,8.80
2023-03-21T07:49:26.440Z,6.07
2023-03-21T07:50:28.993Z,7.32
2023-03-21T07:51:32.013Z,8.68
2023-03-21T07:52:34.725Z,5.90
2023-03-21T07:53:37.094Z,6.72
2023-03-21T07:55:59.997Z,6.72
2023-03-21T07:57:02.517Z,6.10
2023-03-21T07:58:05.324Z,6.18
2023-03-21T07:59:08.404Z,7.10
2023-03-21T08:00:12.617Z,6.18
2023-03-21T08:01:18.991Z,5.90
2023-03-21T08:02:21.610Z,4.35
2023-03-21T08:03:33.708Z,6.05
2023-03-21T08:04:36.125Z,5.80
2023-03-21T08:05:39.361Z,7.40
2023-03-21T08:06:42.072Z,6.82
2023-03-21T08:07:44.953Z,6.88
2023-03-21T08:08:47.691Z,6.32
2023-03-21T08:09:50.152Z,6.45
2023-03-21T08:10:52.706Z,7.85
2023-03-21T08:11:55.375Z,6.55
2023-03-21T08:12:58.135Z,7.28
2023-03-21T08:14:01.200Z,6.28
2023-03-21T08:15:03.945Z,5.07
2023-03-21T08:16:07.806Z,7.47
2023-03-21T08:17:10.774Z,5.53
2023-03-21T08:18:13.102Z,5.38
2023-03-21T08:19:15.912Z,6.07
2023-03-21T08:20:21.331Z,4.82
2023-03-21T08:21:23.830Z,6.60
2023-03-21T08:22:26.266Z,6.32
2023-03-21T08:23:29.567Z,5.50
2023-03-21T08:24:33.994Z,5.30
2023-03-21T08:25:36.814Z,5.35
2023-03-21T08:26:39.397Z,5.68
2023-03-21T08:27:43.847Z,6.85
2023-03-21T08:28:46.839Z,7.82
2023-03-21T08:29:49.282Z,5.85
2023-03-21T08:30:57.199Z,5.43
2023-03-21T08:31:59.598Z,7.15
2023-03-21T08:33:02.160Z,6.03
2023-03-21T08:34:04.592Z,6.53
2023-03-21T08:35:14.281Z,5.32
2023-03-21T08:36:16.884Z,5.70
2023-03-21T08:37:19.286Z,8.05
2023-03-21T08:38:21.747Z,4.85
2023-03-21T08:39:24.970Z,5.63
2023-03-21T08:40:27.536Z,6.00
2023-03-21T08:41:29.954Z,5.53
2023-03-21T08:42:32.460Z,7.20
2023-03-21T08:43:35.125Z,6.80
2023-03-21T08:44:38.893Z,5.20
2023-03-21T08:45:41.379Z,8.43
2023-03-21T08:46:43.889Z,5.53
2023-03-21T08:47:47.467Z,7.85
2023-03-21T08:48:50.186Z,4.68
2023-03-21T08:49:52.668Z,4.80
2023-03-21T08:50:55.945Z,4.72
2023-03-21T08:51:58.595Z,4.05
2023-03-21T08:53:01.479Z,3.55
2023-03-21T08:54:04.240Z,3.88
2023-03-21T08:55:07.139Z,6.70
2023-03-21T08:56:10.450Z,3.45
2023-03-21T08:57:12.875Z,3.83
2023-03-21T08:58:15.233Z,3.53
2023-03-21T08:59:21.007Z,7.03
2023-03-21T09:00:23.919Z,4.35
2023-03-21T09:01:27.023Z,3.75
2023-03-21T09:02:29.421Z,6.40
2023-03-21T09:03:31.869Z,5.07
2023-03-21T09:04:34.788Z,4.18
2023-03-21T09:05:37.387Z,4.32
2023-03-21T09:06:57.798Z,4.57
2023-03-21T09:08:01.572Z,3.13
2023-03-21T09:09:07.353Z,3.92
2023-03-21T09:10:20.683Z,2.95
2023-03-21T09:11:24.047Z,2.45
2023-03-21T09:12:26.837Z,2.72
2023-03-21T09:13:29.349Z,2.50
2023-03-21T09:14:33.092Z,7.88
2023-03-21T09:15:36.401Z,2.97
2023-03-21T09:16:39.134Z,4.43
2023-03-21T09:17:52.318Z,4.07
2023-03-21T09:18:56.881Z,4.20
2023-03-21T09:20:00.582Z,2.83
2023-03-21T09:21:12.900Z,2.13
2023-03-21T09:22:18.084Z,3.92
2023-03-21T09:23:21.407Z,1.98
2023-03-21T09:24:24.136Z,4.55
2023-03-21T09:25:29.595Z,2.17
2023-03-21T09:26:32.865Z,2.75
2023-03-21T09:27:36.142Z,1.90
2023-03-21T09:28:39.143Z,1.98
2023-03-21T09:29:44.737Z,1.85
2023-03-21T09:30:47.111Z,1.63
2023-03-21T09:31:49.802Z,1.88
2023-03-21T09:33:00.650Z,2.10
2023-03-21T09:34:03.928Z,2.63
2023-03-21T09:35:07.810Z,1.65
2023-03-21T09:36:19.140Z,1.65
2023-03-21T09:38:30.281Z,1.42
2023-03-21T09:39:32.873Z,4.50
2023-03-21T09:40:58.131Z,1.30
2023-03-21T09:42:32.862Z,1.40
2023-03-21T09:43:59.024Z,1.60
2023-03-21T09:45:18.898Z,3.28
2023-03-21T09:46:37.427Z,3.35
2023-03-21T09:47:54.030Z,1.83
2023-03-21T09:49:21.645Z,3.65
2023-03-21T09:50:31.935Z,3.05
2023-03-21T09:51:41.214Z,1.90
2023-03-21T09:52:53.920Z,1.65
2023-03-21T09:54:00.588Z,2.58
2023-03-21T09:55:06.064Z,1.13
2023-03-21T09:56:12.460Z,2.45
2023-03-21T09:57:19.674Z,1.60
2023-03-21T09:58:22.062Z,2.03
2023-03-21T09:59:40.141Z,2.97
2023-03-21T10:00:48.204Z,2.20
2023-03-21T10:01:50.850Z,1.73
2023-03-21T10:02:59.889Z,2.47
2023-03-21T10:04:07.205Z,1.77
2023-03-21T10:05:31.952Z,2.67
2023-03-21T10:06:40.073Z,2.03
2023-03-21T10:07:54.344Z,1.55
2023-03-21T10:09:06.105Z,2.33
2023-03-21T10:10:17.888Z,1.83
2023-03-21T10:11:27.840Z,1.63
2023-03-21T10:12:30.687Z,2.30
2023-03-21T10:13:40.539Z,2.03
2023-03-21T10:14:47.917Z,2.17
2023-03-21T10:15:50.499Z,2.13
2023-03-21T10:16:58.438Z,3.15
2023-03-21T10:18:04.730Z,2.20
2023-03-21T10:19:19.196Z,1.63
2023-03-21T10:20:31.127Z,2.80
2023-03-21T10:23:00.041Z,4.15
2023-03-21T10:24:06.436Z,2.25
2023-03-21T10:25:13.364Z,2.65
2023-03-21T10:26:16.981Z,2.05
2023-03-21T10:27:19.923Z,1.42
2023-03-21T10:28:51.973Z,3.55
2023-03-21T10:29:58.904Z,2.70
2023-03-21T10:31:04.737Z,1.88
2023-03-21T10:32:12.604Z,1.45
2023-03-21T10:33:26.349Z,2.25
2023-03-21T10:34:35.954Z,3.75
2023-03-21T10:35:41.896Z,2.78
2023-03-21T10:36:45.767Z,2.85
2023-03-21T10:37:48.377Z,1.67
2023-03-21T10:38:54.818Z,1.50
2023-03-21T10:39:57.210Z,2.88
2023-03-21T10:40:59.856Z,2.25
2023-03-21T10:42:02.448Z,1.40
2023-03-21T10:43:30.039Z,2.22
2023-03-21T10:44:35.122Z,2.25
2023-03-21T10:45:38.043Z,1.67
2023-03-21T10:47:09.568Z,2.47
2023-03-21T10:48:12.255Z,1.90
2023-03-21T10:49:15.942Z,1.30
2023-03-21T10:50:28.043Z,3.28
2023-03-21T10:51:37.230Z,3.72
2023-03-21T10:52:49.866Z,1.27
2023-03-21T10:53:57.738Z,3.58
2023-03-21T10:55:41.145Z,1.15
2023-03-21T10:56:57.127Z,4.32
2023-03-21T10:58:10.808Z,2.13
2023-03-21T10:59:20.615Z,2.05
2023-03-21T11:00:27.835Z,1.38
2023-03-21T11:01:43.924Z,2.00
2023-03-21T11:02:50.442Z,2.78
2023-03-21T11:03:59.606Z,2.25
2023-03-21T11:05:25.309Z,1.10
2023-03-21T11:06:33.612Z,1.65
2023-03-21T11:07:37.623Z,1.90
2023-03-21T11:08:54.214Z,3.35
2023-03-21T11:10:00.327Z,1.80
2023-03-21T11:11:09.772Z,1.65
2023-03-21T11:12:17.388Z,2.55
2023-03-21T11:13:33.191Z,1.30
2023-03-21T11:14:44.482Z,1.60
2023-03-21T11:16:54.479Z,5.55
2023-03-21T11:17:58.561Z,2.92
2023-03-21T11:19:14.603Z,4.50
2023-03-21T11:20:19.320Z,2.60
2023-03-21T11:21:22.144Z,1.88
2023-03-21T11:22:42.909Z,1.15
2023-03-21T11:23:49.566Z,1.98
2023-03-21T11:24:59.833Z,1.33
2023-03-21T11:26:08.768Z,3.45
2023-03-21T11:27:11.209Z,1.40
2023-03-21T11:28:17.274Z,2.00
2023-03-21T11:29:39.002Z,1.85
2023-03-21T11:30:58.970Z,2.97
2023-03-21T11:32:17.868Z,1.75
2023-03-21T11:33:22.892Z,1.42
2023-03-21T11:34:47.749Z,1.90
2023-03-21T11:36:22.305Z,1.50
2023-03-21T11:37:31.040Z,1.50
2023-03-21T11:38:39.111Z,1.90
2023-03-21T11:39:44.040Z,1.67
2023-03-21T11:40:56.521Z,1.40
2023-03-21T11:41:59.357Z,1.90
2023-03-21T11:43:03.530Z,2.33
2023-03-21T11:44:06.116Z,1.38
2023-03-21T11:45:27.499Z,2.80
2023-03-21T11:46:32.293Z,4.10
2023-03-21T11:47:34.766Z,3.42
2023-03-21T11:48:43.193Z,2.15
2023-03-21T11:49:45.703Z,3.38
2023-03-21T11:50:51.481Z,3.00
2023-03-21T11:52:16.136Z,0.80
2023-03-21T11:53:30.305Z,2.00
2023-03-21T11:54:47.110Z,3.42
2023-03-21T11:56:10.774Z,0.82
2023-03-21T11:57:33.867Z,1.00
2023-03-21T11:59:18.820Z,1.20
2023-03-21T12:00:26.356Z,0.80
2023-03-21T12:01:57.274Z,2.95
2023-03-21T12:03:06.122Z,1.27
2023-03-21T12:04:20.758Z,0.70
2023-03-21T12:05:31.341Z,1.35
2023-03-21T12:06:55.452Z,0.75
2023-03-21T12:08:12.800Z,1.10
2023-03-21T12:09:31.890Z,1.70
2023-03-21T12:10:46.638Z,2.30
2023-03-21T12:12:12.965Z,0.95
2023-03-21T12:13:33.570Z,2.15
2023-03-21T12:14:58.512Z,0.75
2023-03-21T12:16:10.068Z,1.63
2023-03-21T12:17:29.856Z,1.90
2023-03-21T12:18:56.524Z,1.13
2023-03-21T12:20:32.979Z,1.02
2023-03-21T12:21:42.799Z,2.13
2023-03-21T12:23:16.969Z,1.10
2023-03-21T12:24:22.241Z,0.63
2023-03-21T12:25:45.798Z,2.15
2023-03-21T12:26:53.993Z,3.38
2023-03-21T12:28:16.968Z,0.85
2023-03-21T12:29:34.057Z,1.98
2023-03-21T12:31:03.551Z,1.20
2023-03-21T12:32:44.943Z,1.08
2023-03-21T12:34:13.707Z,1.42
2023-03-21T12:35:34.324Z,1.00
2023-03-21T12:37:04.528Z,2.30
2023-03-21T12:38:21.830Z,1.65
2023-03-21T12:39:36.490Z,0.95
2023-03-21T12:40:56.803Z,2.15
2023-03-21T12:42:39.053Z,1.83
2023-03-21T12:44:55.574Z,0.77
2023-03-21T12:46:02.568Z,1.50
2023-03-21T12:47:39.632Z,1.05
2023-03-21T12:48:49.975Z,0.93
2023-03-21T12:50:03.652Z,1.65
2023-03-21T12:51:11.800Z,1.15
2023-03-21T12:52:23.865Z,0.70
2023-03-21T12:53:51.666Z,0.52
2023-03-21T12:54:59.952Z,1.02
2023-03-21T12:56:08.150Z,1.55
2023-03-21T12:57:17.983Z,0.80
2023-03-21T12:58:24.592Z,0.93
2023-03-21T12:59:52.309Z,1.42
2023-03-21T13:01:04.601Z,0.60
2023-03-21T13:02:31.695Z,2.35
2023-03-21T13:03:43.710Z,0.80
2023-03-21T13:04:59.501Z,1.00
2023-03-21T13:06:09.307Z,2.47
2023-03-21T13:07:18.035Z,1.23
2023-03-21T13:08:23.353Z,1.55
2023-03-21T13:09:40.192Z,0.77
2023-03-21T13:10:45.175Z,0.65
2023-03-21T13:11:48.470Z,1.10
2023-03-21T13:13:08.409Z,0.70
2023-03-21T13:14:20.546Z,1.00
2023-03-21T13:15:36.912Z,1.25
2023-03-21T13:17:19.463Z,0.73
2023-03-21T13:18:51.383Z,1.20
2023-03-21T13:21:09.524Z,3.75
2023-03-21T13:22:28.331Z,0.88
2023-03-21T13:23:36.963Z,1.85
2023-03-21T13:24:48.059Z,3.40
2023-03-21T13:25:54.401Z,0.65
2023-03-21T13:27:33.708Z,1.00
2023-03-21T13:28:38.676Z,1.85
2023-03-21T13:29:51.851Z,1.58
2023-03-21T13:31:14.598Z,0.70
2023-03-21T13:32:38.877Z,0.50
2023-03-21T13:33:45.745Z,0.50
2023-03-21T13:34:56.248Z,1.58
2023-03-21T13:36:08.298Z,1.57
2023-03-21T13:37:19.308Z,0.68
2023-03-21T13:38:26.479Z,1.02
2023-03-21T13:39:31.044Z,1.15
2023-03-21T13:40:47.869Z,0.82
2023-03-21T13:41:50.821Z,2.10
2023-03-21T13:42:57.115Z,0.95
2023-03-21T13:44:02.240Z,2.92
2023-03-21T13:45:10.806Z,2.42
2023-03-21T13:46:50.372Z,0.68
2023-03-21T13:47:58.430Z,0.85
2023-03-21T13:49:10.579Z,0.63
2023-03-21T13:50:22.847Z,0.70
2023-03-21T13:51:31.452Z,0.65
2023-03-21T13:52:34.026Z,1.92
2023-03-21T13:53:37.090Z,1.13
2023-03-21T13:54:50.950Z,1.13
2023-03-21T13:56:09.182Z,0.60
2023-03-21T13:57:40.746Z,1.35
2023-03-21T13:58:45.885Z,0.70
2023-03-21T13:59:48.947Z,3.40
2023-03-21T14:01:45.046Z,0.73
2023-03-21T14:03:08.817Z,2.15
2023-03-21T14:04:31.974Z,1.05
2023-03-21T14:05:51.241Z,1.05
2023-03-21T14:07:03.133Z,1.67
2023-03-21T14:08:24.685Z,1.08
2023-03-21T14:09:36.387Z,0.63
2023-03-21T14:10:42.910Z,1.08
2023-03-21T14:11:48.396Z,0.82
2023-03-21T14:12:52.981Z,0.77
2023-03-21T14:13:55.590Z,2.05
2023-03-21T14:15:16.750Z,0.70
2023-03-21T14:16:22.060Z,0.60
2023-03-21T14:17:28.343Z,0.70
2023-03-21T14:18:56.297Z,2.03
2023-03-21T14:19:55.971Z,0.80
2023-03-21T14:20:59.915Z,0.70
2023-03-21T14:22:05.078Z,1.58
2023-03-21T14:23:13.598Z,2.45
2023-03-21T14:24:17.837Z,1.00
2023-03-21T14:25:27.166Z,2.80
2023-03-21T14:26:38.226Z,1.65
2023-03-21T14:27:44.695Z,0.68
2023-03-21T14:28:51.161Z,0.98
2023-03-21T14:29:53.554Z,0.60
2023-03-21T14:31:00.208Z,1.27
2023-03-21T14:32:04.023Z,0.65
2023-03-21T14:33:32.043Z,1.00
2023-03-21T14:34:36.051Z,1.75
2023-03-21T14:35:42.461Z,2.17
2023-03-21T14:36:51.619Z,1.00
2023-03-21T14:38:07.329Z,1.88
2023-03-21T14:39:17.306Z,1.02
2023-03-21T14:40:28.158Z,0.93
2023-03-21T14:41:32.068Z,0.75
2023-03-21T14:42:36.266Z,1.17
2023-03-21T14:43:38.671Z,1.02
2023-03-21T14:44:58.630Z,0.77
2023-03-21T14:46:01.517Z,1.55
2023-03-21T14:47:17.382Z,0.85
2023-03-21T14:48:20.816Z,0.70
2023-03-21T14:49:31.879Z,2.47
2023-03-21T14:50:46.048Z,1.42
2023-03-21T14:51:51.653Z,2.03
2023-03-21T14:52:54.621Z,0.68
2023-03-21T14:53:57.664Z,1.15
2023-03-21T14:55:01.750Z,4.65
2023-03-21T14:56:22.012Z,3.08
2023-03-21T14:57:33.181Z,5.30
2023-03-21T14:58:40.415Z,2.65
2023-03-21T14:59:43.087Z,2.33
2023-03-21T15:00:50.197Z,1.15
2023-03-21T15:01:54.523Z,1.33
2023-03-21T15:02:59.430Z,1.27
2023-03-21T15:04:06.317Z,0.73
2023-03-21T15:05:31.625Z,1.30
2023-03-21T15:06:35.730Z,0.60
2023-03-21T15:07:38.099Z,0.60
2023-03-21T15:08:53.132Z,2.47
2023-03-21T15:09:58.328Z,1.02
2023-03-21T15:11:07.754Z,3.42
2023-03-21T15:12:14.776Z,0.75
2023-03-21T15:13:22.339Z,1.02
2023-03-21T15:14:28.798Z,1.02
2023-03-21T15:15:33.062Z,2.47
2023-03-21T15:16:36.143Z,1.00
2023-03-21T15:17:38.815Z,1.10
2023-03-21T15:18:42.868Z,0.90
2023-03-21T15:19:45.674Z,1.42
2023-03-21T15:20:51.002Z,2.30
2023-03-21T15:21:59.309Z,0.85
2023-03-21T15:23:06.274Z,0.65
2023-03-21T15:24:20.454Z,1.05
2023-03-21T15:25:27.858Z,0.80
2023-03-21T15:26:31.763Z,1.65
2023-03-21T15:27:40.478Z,0.70
2023-03-21T15:28:54.919Z,1.58
2023-03-21T15:29:57.302Z,1.02
2023-03-21T15:30:59.901Z,0.68
2023-03-21T15:32:05.452Z,1.67
2023-03-21T15:33:12.887Z,1.52
2023-03-21T15:34:28.344Z,1.63
2023-03-21T15:35:38.209Z,1.90
2023-03-21T15:36:46.657Z,2.33
2023-03-21T15:37:57.059Z,0.60
2023-03-21T15:39:08.773Z,1.17
2023-03-21T15:40:41.047Z,0.68
2023-03-21T15:42:17.540Z,5.13
2023-03-21T15:43:21.226Z,0.65
2023-03-21T15:44:23.763Z,1.65
2023-03-21T15:45:27.792Z,0.93
2023-03-21T15:46:44.788Z,1.10
2023-03-21T15:47:54.059Z,1.38
2023-03-21T15:49:25.142Z,0.73
2023-03-21T15:50:58.470Z,1.43
2023-03-21T15:52:16.211Z,0.60
2023-03-21T15:53:21.210Z,4.35
2023-03-21T15:54:36.906Z,0.88
2023-03-21T15:55:49.764Z,1.30